createdAt,value
2022-11-09T00:02:02.310Z,100.00
2022-11-09T00:04:31.748Z,100.00
2022-11-09T00:07:10.943Z,100.00
2022-11-09T00:09:45.617Z,100.00
2022-11-09T00:12:21.979Z,100.00
2022-11-09T00:15:01.089Z,100.00
2022-11-09T00:18:05.400Z,100.00
2022-11-09T00:20:47.670Z,100.00
2022-11-09T00:23:39.742Z,100.00
2022-11-09T00:26:25.215Z,100.00
2022-11-09T00:28:53.121Z,100.00
2022-11-09T00:31:24.295Z,100.00
2022-11-09T00:34:24.881Z,100.00
2022-11-09T00:37:01.218Z,100.00
2022-11-09T00:39:38.255Z,100.00
2022-11-09T00:42:07.549Z,100.00
2022-11-09T00:44:41.764Z,100.00
2022-11-09T00:47:09.007Z,100.00
2022-11-09T00:49:49.426Z,100.00
2022-11-09T00:52:25.065Z,100.00
2022-11-09T00:58:44.725Z,100.00
2022-11-09T01:04:52.088Z,100.00
2022-11-09T01:07:32.548Z,100.00
2022-11-09T01:10:06.757Z,100.00
2022-11-09T01:12:41.997Z,100.00
2022-11-09T01:15:46.479Z,100.00
2022-11-09T01:18:15.144Z,100.00
2022-11-09T01:20:47.168Z,100.00
2022-11-09T01:23:26.800Z,100.00
2022-11-09T01:26:22.155Z,100.00
2022-11-09T01:28:57.352Z,100.00
2022-11-09T01:31:26.616Z,100.00
2022-11-09T01:33:55.063Z,99.81
2022-11-09T01:36:46.876Z,99.37
2022-11-09T01:39:50.816Z,99.20
2022-11-09T01:42:29.589Z,98.89
2022-11-09T01:45:19.019Z,98.97
2022-11-09T01:48:21.128Z,98.82
2022-11-09T01:51:13.065Z,98.64
2022-11-09T01:54:22.748Z,98.43
2022-11-09T01:56:55.317Z,98.12
2022-11-09T01:59:37.159Z,98.14
2022-11-09T02:02:08.416Z,97.84
2022-11-09T02:04:48.052Z,97.53
2022-11-09T02:07:16.485Z,98.03
2022-11-09T02:09:57.113Z,97.95
2022-11-09T02:12:31.709Z,97.65
2022-11-09T02:15:02.345Z,97.35
2022-11-09T02:17:35.779Z,97.37
2022-11-09T02:20:07.340Z,97.08
2022-11-09T02:22:37.413Z,97.45
2022-11-09T02:25:06.082Z,97.50
2022-11-09T02:27:33.157Z,97.29
2022-11-09T02:30:01.486Z,97.71
2022-11-09T02:32:30.565Z,97.50
2022-11-09T02:35:00.659Z,97.63
2022-11-09T02:37:31.484Z,96.91
2022-11-09T02:40:01.593Z,97.48
2022-11-09T02:42:38.044Z,97.46
2022-11-09T02:45:06.677Z,97.40
2022-11-09T02:47:36.555Z,97.59
2022-11-09T02:50:05.256Z,97.67
2022-11-09T02:52:32.296Z,97.90
2022-11-09T02:55:02.360Z,97.54
2022-11-09T02:57:29.359Z,97.71
2022-11-09T02:59:56.466Z,97.41
2022-11-09T03:02:30.708Z,97.24
2022-11-09T03:04:57.796Z,97.04
2022-11-09T03:07:24.838Z,96.88
2022-11-09T03:09:54.800Z,96.52
2022-11-09T03:12:31.796Z,96.34
2022-11-09T03:15:04.511Z,96.00
2022-11-09T03:17:32.841Z,95.64
2022-11-09T03:19:59.828Z,95.55
2022-11-09T03:22:28.205Z,95.24
2022-11-09T03:24:56.325Z,95.31
2022-11-09T03:27:26.320Z,94.86
2022-11-09T03:29:53.452Z,94.56
2022-11-09T03:32:21.612Z,94.85
2022-11-09T03:34:49.673Z,94.81
2022-11-09T03:37:18.983Z,94.34
2022-11-09T03:39:49.195Z,94.21
2022-11-09T03:42:30.287Z,94.62
2022-11-09T03:45:01.419Z,94.34
2022-11-09T03:47:45.821Z,94.30
2022-11-09T03:50:15.756Z,94.12
2022-11-09T03:52:47.244Z,93.92
2022-11-09T03:55:16.281Z,93.80
2022-11-09T03:57:46.432Z,93.56
2022-11-09T04:00:16.274Z,93.75
2022-11-09T04:02:44.620Z,93.38
2022-11-09T04:05:13.028Z,93.54
2022-11-09T04:07:48.623Z,93.61
2022-11-09T04:10:15.921Z,93.71
2022-11-09T04:12:49.328Z,93.58
2022-11-09T04:15:17.925Z,93.86
2022-11-09T04:18:00.731Z,94.27
2022-11-09T04:20:29.709Z,94.09
2022-11-09T04:23:01.653Z,94.70
2022-11-09T04:25:36.526Z,94.27
2022-11-09T04:28:05.159Z,94.74
2022-11-09T04:30:35.208Z,95.06
2022-11-09T04:33:03.365Z,95.30
2022-11-09T04:35:32.415Z,95.23
2022-11-09T04:38:06.848Z,94.82
2022-11-09T04:40:36.527Z,94.85
2022-11-09T04:43:13.219Z,94.93
2022-11-09T04:45:42.400Z,95.17
2022-11-09T04:48:11.481Z,95.03
2022-11-09T04:50:42.707Z,94.77
2022-11-09T04:53:15.805Z,94.97
2022-11-09T04:55:44.247Z,95.21
2022-11-09T04:58:14.238Z,94.81
2022-11-09T05:00:42.365Z,94.46
2022-11-09T05:03:11.426Z,94.54
2022-11-09T05:05:44.068Z,94.18
2022-11-09T05:08:14.363Z,94.70
2022-11-09T05:10:47.241Z,94.29
2022-11-09T05:13:14.737Z,93.83
2022-11-09T05:15:43.871Z,94.18
2022-11-09T05:18:12.061Z,93.91
2022-11-09T05:20:39.226Z,93.89
2022-11-09T05:23:33.860Z,94.16
2022-11-09T05:26:00.961Z,94.58
2022-11-09T05:28:34.110Z,95.46
2022-11-09T05:31:07.380Z,95.52
2022-11-09T05:33:45.585Z,96.19
2022-11-09T05:36:22.651Z,96.31
2022-11-09T05:38:59.108Z,96.04
2022-11-09T05:41:27.508Z,96.33
2022-11-09T05:43:57.650Z,96.36
2022-11-09T05:46:25.570Z,96.66
2022-11-09T05:48:58.645Z,96.87
2022-11-09T05:51:26.628Z,96.97
2022-11-09T05:53:54.788Z,97.26
2022-11-09T05:56:22.824Z,96.60
2022-11-09T05:58:49.880Z,97.22
2022-11-09T06:01:19.308Z,97.05
2022-11-09T06:03:46.523Z,97.28
2022-11-09T06:06:15.454Z,97.12
2022-11-09T06:08:43.455Z,97.33
2022-11-09T06:11:13.061Z,97.92
2022-11-09T06:13:41.823Z,97.60
2022-11-09T06:16:10.653Z,97.45
2022-11-09T06:18:38.084Z,96.99
2022-11-09T06:21:06.146Z,96.85
2022-11-09T06:23:35.877Z,96.84
2022-11-09T06:26:10.755Z,96.81
2022-11-09T06:28:40.093Z,96.39
2022-11-09T06:31:11.929Z,96.02
2022-11-09T06:33:40.116Z,96.06
2022-11-09T06:36:11.575Z,96.18
2022-11-09T06:38:40.903Z,95.60
2022-11-09T06:41:10.897Z,95.02
2022-11-09T06:43:45.122Z,95.25
2022-11-09T06:46:17.453Z,95.01
2022-11-09T06:48:48.314Z,94.55
2022-11-09T06:51:28.541Z,94.80
2022-11-09T06:53:56.561Z,94.18
2022-11-09T06:56:30.468Z,93.97
2022-11-09T06:58:59.851Z,93.75
2022-11-09T07:01:29.028Z,93.69
2022-11-09T07:03:56.346Z,93.60
2022-11-09T07:06:23.547Z,93.00
2022-11-09T07:08:50.582Z,92.85
2022-11-09T07:11:20.053Z,92.78
2022-11-09T07:13:56.230Z,93.11
2022-11-09T07:16:25.539Z,92.92
2022-11-09T07:18:54.904Z,92.83
2022-11-09T07:21:21.843Z,92.67
2022-11-09T07:23:55.020Z,92.09
2022-11-09T07:26:26.131Z,91.63
2022-11-09T07:28:54.582Z,91.63
2022-11-09T07:31:29.680Z,91.52
2022-11-09T07:34:05.088Z,90.91
2022-11-09T07:36:34.494Z,90.76
2022-11-09T07:39:04.664Z,89.86
2022-11-09T07:41:35.715Z,89.70
2022-11-09T07:44:06.860Z,89.36
2022-11-09T07:46:36.194Z,89.02
2022-11-09T07:49:03.313Z,88.80
2022-11-09T07:51:30.428Z,88.37
2022-11-09T07:54:04.507Z,87.96
2022-11-09T07:56:33.043Z,88.14
2022-11-09T07:59:04.155Z,87.92
2022-11-09T08:01:50.463Z,87.00
2022-11-09T08:04:17.635Z,86.55
2022-11-09T08:06:48.699Z,86.51
2022-11-09T08:09:15.729Z,85.95
2022-11-09T08:11:44.620Z,85.54
2022-11-09T08:14:11.638Z,84.21
2022-11-09T08:16:45.703Z,83.74
2022-11-09T08:19:14.871Z,82.47
2022-11-09T08:21:42.288Z,81.54
2022-11-09T08:24:09.387Z,81.23
2022-11-09T08:26:42.270Z,81.20
2022-11-09T08:29:18.083Z,80.86
2022-11-09T08:31:46.288Z,80.27
2022-11-09T08:34:28.120Z,80.00
2022-11-09T08:37:02.642Z,78.90
2022-11-09T08:39:29.626Z,78.47
2022-11-09T08:41:58.815Z,77.18
2022-11-09T08:44:30.908Z,76.29
2022-11-09T08:46:58.136Z,74.33
2022-11-09T08:49:25.091Z,73.03
2022-11-09T08:51:52.002Z,72.53
2022-11-09T08:54:19.234Z,70.72
2022-11-09T08:56:56.047Z,72.08
2022-11-09T08:59:24.272Z,72.20
2022-11-09T09:01:52.388Z,72.52
2022-11-09T09:04:20.338Z,72.80
2022-11-09T09:06:48.645Z,72.97
2022-11-09T09:09:15.697Z,71.72
2022-11-09T09:11:47.067Z,70.82
2022-11-09T09:14:15.245Z,69.68
2022-11-09T09:16:42.881Z,69.35
2022-11-09T09:19:15.817Z,68.07
2022-11-09T09:21:44.086Z,68.89
2022-11-09T09:24:12.194Z,68.65
2022-11-09T09:26:41.254Z,67.28
2022-11-09T09:29:13.598Z,65.50
2022-11-09T09:31:53.886Z,68.47
2022-11-09T09:34:24.845Z,68.90
2022-11-09T09:36:53.985Z,70.64
2022-11-09T09:39:41.022Z,70.58
2022-11-09T09:42:20.623Z,70.09
2022-11-09T09:45:02.842Z,68.49
2022-11-09T09:47:56.584Z,67.02
2022-11-09T09:50:30.541Z,66.70
2022-11-09T09:53:23.776Z,65.18
2022-11-09T09:56:04.053Z,64.95
2022-11-09T09:58:35.358Z,63.53
2022-11-09T10:01:15.614Z,61.98
2022-11-09T10:03:42.831Z,62.07
2022-11-09T10:06:51.483Z,63.19
2022-11-09T10:10:01.088Z,61.52
2022-11-09T10:12:46.965Z,61.90
2022-11-09T10:15:36.267Z,59.97
2022-11-09T10:18:42.719Z,60.51
2022-11-09T10:21:35.426Z,61.38
2022-11-09T10:24:08.380Z,60.75
2022-11-09T10:26:52.670Z,59.52
2022-11-09T10:29:34.160Z,59.06
2022-11-09T10:32:17.499Z,59.65
2022-11-09T10:34:55.039Z,57.88
2022-11-09T10:37:40.119Z,58.23
2022-11-09T10:40:27.690Z,56.93
2022-11-09T10:43:10.160Z,57.93
2022-11-09T10:45:39.884Z,57.13
2022-11-09T10:48:08.935Z,60.41
2022-11-09T10:50:52.926Z,62.54
2022-11-09T10:53:33.683Z,64.29
2022-11-09T10:56:22.033Z,65.84
2022-11-09T10:58:57.382Z,66.26
2022-11-09T11:01:26.399Z,65.68
2022-11-09T11:03:57.550Z,65.70
2022-11-09T11:06:44.430Z,66.17
2022-11-09T11:09:12.467Z,65.90
2022-11-09T11:12:16.083Z,65.16
2022-11-09T11:14:45.477Z,64.49
2022-11-09T11:17:37.095Z,64.06
2022-11-09T11:20:31.262Z,64.54
2022-11-09T11:23:20.769Z,64.06
2022-11-09T11:26:04.088Z,64.76
2022-11-09T11:28:40.652Z,65.14
2022-11-09T11:31:14.329Z,65.55
2022-11-09T11:33:44.385Z,65.07
2022-11-09T11:36:51.676Z,64.96
2022-11-09T11:39:47.585Z,66.37
2022-11-09T11:42:53.243Z,66.59
2022-11-09T11:45:43.194Z,64.89
2022-11-09T11:48:43.095Z,65.22
2022-11-09T11:51:21.856Z,64.90
2022-11-09T11:54:17.700Z,63.84
2022-11-09T11:57:29.416Z,63.94
2022-11-09T12:00:04.648Z,64.55
2022-11-09T12:03:02.107Z,64.59
2022-11-09T12:05:59.766Z,64.32
2022-11-09T12:08:50.169Z,64.59
2022-11-09T12:11:36.050Z,65.07
2022-11-09T12:14:04.942Z,63.44
2022-11-09T12:17:03.570Z,63.00
2022-11-09T12:20:09.617Z,59.58
2022-11-09T12:23:11.100Z,61.08
2022-11-09T12:25:50.554Z,61.41
2022-11-09T12:28:38.915Z,61.36
2022-11-09T12:31:36.440Z,61.92
2022-11-09T12:34:50.356Z,62.11
2022-11-09T12:37:28.364Z,62.00
2022-11-09T12:40:13.975Z,62.06
2022-11-09T12:42:56.616Z,62.59
2022-11-09T12:45:30.754Z,62.22
2022-11-09T12:48:26.282Z,64.27
2022-11-09T12:50:54.420Z,64.56
2022-11-09T12:53:24.834Z,65.60
2022-11-09T12:56:15.214Z,65.30
2022-11-09T12:58:42.306Z,65.77
2022-11-09T13:01:33.476Z,64.73
2022-11-09T13:04:02.848Z,63.86
2022-11-09T13:06:34.016Z,64.59
2022-11-09T13:09:16.641Z,66.22
2022-11-09T13:11:51.757Z,65.88
2022-11-09T13:14:27.444Z,66.16
2022-11-09T13:17:31.334Z,67.56
2022-11-09T13:19:58.358Z,66.03
2022-11-09T13:22:28.092Z,65.59
2022-11-09T13:25:02.043Z,65.24
2022-11-09T13:27:42.605Z,66.16
2022-11-09T13:30:33.555Z,65.34
2022-11-09T13:33:06.554Z,66.21
2022-11-09T13:35:42.477Z,67.10
2022-11-09T13:38:18.218Z,67.90
2022-11-09T13:40:49.872Z,66.79
2022-11-09T13:43:22.933Z,67.04
2022-11-09T13:45:50.136Z,66.28
2022-11-09T13:48:50.562Z,66.54
2022-11-09T13:51:38.050Z,66.40
2022-11-09T13:54:32.760Z,65.17
2022-11-09T13:57:10.031Z,66.16
2022-11-09T13:59:47.782Z,66.92
2022-11-09T14:02:23.481Z,66.08
2022-11-09T14:04:50.744Z,65.14
2022-11-09T14:07:33.179Z,65.71
2022-11-09T14:10:41.641Z,66.05
2022-11-09T14:13:37.126Z,63.26
2022-11-09T14:16:09.036Z,63.66
2022-11-09T14:19:20.525Z,64.97
2022-11-09T14:21:53.939Z,65.83
2022-11-09T14:24:25.482Z,67.44
2022-11-09T14:27:11.042Z,68.46
2022-11-09T14:29:51.119Z,70.08
2022-11-09T14:32:37.174Z,71.06
2022-11-09T14:35:36.205Z,71.76
2022-11-09T14:38:37.290Z,73.15
2022-11-09T14:41:19.690Z,74.64
2022-11-09T14:43:50.311Z,75.96
2022-11-09T14:46:25.472Z,76.92
2022-11-09T14:48:56.682Z,77.42
2022-11-09T14:51:32.739Z,78.14
2022-11-09T14:54:02.988Z,78.51
2022-11-09T14:56:31.341Z,78.76
2022-11-09T14:58:58.840Z,79.26
2022-11-09T15:01:27.419Z,79.29
2022-11-09T15:04:15.104Z,80.18
2022-11-09T15:06:49.444Z,80.40
2022-11-09T15:09:20.327Z,80.81
2022-11-09T15:11:49.300Z,81.35
2022-11-09T15:14:34.922Z,81.84
2022-11-09T15:17:15.997Z,82.68
2022-11-09T15:19:51.496Z,83.52
2022-11-09T15:22:48.566Z,84.00
2022-11-09T15:25:31.158Z,83.96
2022-11-09T15:28:03.603Z,84.66
2022-11-09T15:30:46.682Z,85.15
2022-11-09T15:33:26.177Z,85.06
2022-11-09T15:36:18.107Z,85.11
2022-11-09T15:39:09.493Z,85.52
2022-11-09T15:41:41.966Z,86.19
2022-11-09T15:44:11.904Z,86.55
2022-11-09T15:46:54.965Z,86.44
2022-11-09T15:49:25.355Z,86.31
2022-11-09T15:51:53.834Z,86.45
2022-11-09T15:54:30.745Z,86.42
2022-11-09T15:56:59.921Z,86.60
2022-11-09T15:59:33.504Z,86.74
2022-11-09T16:02:00.710Z,87.05
2022-11-09T16:04:27.925Z,86.83
2022-11-09T16:06:55.260Z,87.12
2022-11-09T16:09:29.367Z,87.07
2022-11-09T16:11:58.784Z,87.00
2022-11-09T16:14:41.254Z,87.21
2022-11-09T16:17:11.693Z,87.61
2022-11-09T16:19:40.064Z,87.80
2022-11-09T16:22:10.254Z,88.28
2022-11-09T16:24:39.878Z,88.31
2022-11-09T16:27:12.869Z,88.85
2022-11-09T16:29:57.481Z,88.93
2022-11-09T16:32:25.551Z,88.58
2022-11-09T16:35:15.409Z,88.75
2022-11-09T16:37:43.176Z,88.47
2022-11-09T16:40:14.173Z,87.97
2022-11-09T16:43:01.353Z,87.79
2022-11-09T16:45:34.575Z,88.02
2022-11-09T16:48:10.931Z,88.41
2022-11-09T16:50:44.150Z,88.67
2022-11-09T16:53:12.949Z,88.78
2022-11-09T16:55:40.472Z,88.83
2022-11-09T16:58:10.918Z,88.61
2022-11-09T17:01:08.752Z,88.76
2022-11-09T17:03:50.147Z,88.86
2022-11-09T17:06:51.912Z,89.35
2022-11-09T17:09:16.411Z,89.93
2022-11-09T17:11:45.531Z,89.63
2022-11-09T17:14:14.676Z,89.34
2022-11-09T17:16:43.131Z,88.95
2022-11-09T17:19:11.225Z,89.14
2022-11-09T17:21:39.434Z,89.20
2022-11-09T17:24:08.774Z,89.33
2022-11-09T17:26:42.641Z,89.79
2022-11-09T17:29:10.184Z,89.43
2022-11-09T17:31:41.352Z,89.65
2022-11-09T17:34:16.473Z,89.61
2022-11-09T17:39:31.498Z,90.73
2022-11-09T17:42:00.543Z,90.73
2022-11-09T17:44:27.984Z,91.33
2022-11-09T17:46:57.328Z,91.29
2022-11-09T17:49:24.688Z,91.13
2022-11-09T17:51:53.767Z,90.66
2022-11-09T17:54:21.920Z,90.65
2022-11-09T17:56:52.831Z,90.90
2022-11-09T17:59:20.886Z,91.29
2022-11-09T18:01:48.251Z,90.96
2022-11-09T18:04:16.117Z,90.55
2022-11-09T18:06:49.296Z,90.70
2022-11-09T18:12:40.267Z,91.21
2022-11-09T18:15:08.203Z,91.63
2022-11-09T18:17:37.839Z,92.10
2022-11-09T18:20:15.627Z,91.90
2022-11-09T18:23:12.100Z,90.97
2022-11-09T18:26:14.262Z,91.22
2022-11-09T18:28:42.295Z,91.96
2022-11-09T18:31:15.217Z,91.92
2022-11-09T18:33:46.994Z,92.74
2022-11-09T18:36:17.436Z,93.13
2022-11-09T18:38:56.810Z,92.90
2022-11-09T18:41:37.919Z,92.75
2022-11-09T18:44:07.917Z,92.31
2022-11-09T18:46:37.837Z,91.84
2022-11-09T18:49:30.361Z,92.92
2022-11-09T18:52:06.096Z,93.21
2022-11-09T18:54:36.638Z,91.93
2022-11-09T18:57:06.212Z,92.43
2022-11-09T18:59:34.384Z,93.15
2022-11-09T19:02:02.590Z,92.65
2022-11-09T19:04:29.751Z,92.63
2022-11-09T19:06:59.252Z,93.86
2022-11-09T19:09:30.953Z,94.84
2022-11-09T19:12:13.941Z,95.30
2022-11-09T19:14:42.119Z,95.54
2022-11-09T19:17:15.329Z,96.00
2022-11-09T19:19:44.101Z,95.94
2022-11-09T19:22:19.680Z,95.20
2022-11-09T19:24:47.954Z,95.08
2022-11-09T19:27:16.567Z,94.39
2022-11-09T19:29:44.077Z,93.95
2022-11-09T19:32:11.484Z,93.43
2022-11-09T19:34:43.303Z,94.36
2022-11-09T19:37:10.449Z,95.19
2022-11-09T19:39:48.164Z,95.52
2022-11-09T19:42:15.860Z,95.99
2022-11-09T19:44:50.842Z,95.82
2022-11-09T19:47:21.150Z,95.71
2022-11-09T19:49:49.889Z,95.43
2022-11-09T19:52:23.320Z,96.00
2022-11-09T19:54:53.166Z,96.46
2022-11-09T19:57:20.764Z,97.13
2022-11-09T19:59:48.956Z,98.04
2022-11-09T20:02:16.140Z,98.46
2022-11-09T20:04:48.262Z,97.62
2022-11-09T20:07:15.995Z,96.93
2022-11-09T20:09:44.285Z,97.15
2022-11-09T20:12:30.981Z,97.51
2022-11-09T20:14:59.373Z,98.39
2022-11-09T20:17:27.374Z,99.08
2022-11-09T20:19:57.046Z,99.92
2022-11-09T20:22:30.577Z,99.84
2022-11-09T20:25:01.178Z,100.00
2022-11-09T20:27:32.315Z,100.00
2022-11-09T20:30:07.717Z,99.82
2022-11-09T20:32:36.161Z,100.00
2022-11-09T20:35:03.787Z,100.00
2022-11-09T20:37:38.020Z,100.00
2022-11-09T20:40:08.548Z,100.00
2022-11-09T20:42:36.423Z,100.00
2022-11-09T20:45:04.875Z,100.00
2022-11-09T20:48:02.117Z,100.00
2022-11-09T20:50:29.441Z,100.00
2022-11-09T20:52:59.372Z,100.00
2022-11-09T20:55:28.670Z,100.00
2022-11-09T20:57:57.061Z,100.00
2022-11-09T21:00:24.945Z,100.00
2022-11-09T21:02:53.101Z,100.00
2022-11-09T21:05:23.270Z,100.00
2022-11-09T21:08:02.696Z,100.00
2022-11-09T21:10:30.805Z,100.00
2022-11-09T21:12:58.044Z,100.00
2022-11-09T21:15:25.661Z,100.00
2022-11-09T21:17:54.151Z,100.00
2022-11-09T21:20:25.322Z,100.00
2022-11-09T21:23:12.015Z,100.00
2022-11-09T21:25:59.024Z,100.00
2022-11-09T21:28:46.849Z,100.00
2022-11-09T21:31:14.772Z,100.00
2022-11-09T21:33:43.020Z,100.00
2022-11-09T21:36:15.303Z,100.00
2022-11-09T21:38:43.579Z,100.00
2022-11-09T21:41:33.168Z,100.00
2022-11-09T21:44:11.102Z,100.00
2022-11-09T21:46:45.285Z,100.00
2022-11-09T21:49:17.433Z,100.00
2022-11-09T21:51:47.158Z,100.00
2022-11-09T21:54:14.327Z,100.00
2022-11-09T21:56:42.546Z,100.00
2022-11-09T21:59:11.664Z,100.00
2022-11-09T22:01:38.727Z,100.00
2022-11-09T22:04:07.757Z,100.00
2022-11-09T22:06:40.432Z,100.00
2022-11-09T22:09:12.660Z,100.00
2022-11-09T22:12:00.206Z,100.00
2022-11-09T22:14:45.980Z,100.00
2022-11-09T22:17:13.103Z,100.00
2022-11-09T22:19:59.991Z,100.00
2022-11-09T22:22:31.126Z,100.00
2022-11-09T22:25:23.371Z,100.00
2022-11-09T22:27:50.297Z,100.00
2022-11-09T22:30:17.437Z,100.00
2022-11-09T22:32:44.437Z,100.00
2022-11-09T22:35:12.044Z,100.00
2022-11-09T22:37:39.130Z,100.00
2022-11-09T22:40:07.070Z,100.00
2022-11-09T22:42:37.273Z,100.00
2022-11-09T22:45:07.645Z,100.00
2022-11-09T22:47:35.850Z,100.00
2022-11-09T22:50:04.203Z,100.00
2022-11-09T22:52:31.179Z,100.00
2022-11-09T22:54:58.395Z,100.00
2022-11-09T22:57:27.431Z,100.00
2022-11-09T23:00:01.369Z,100.00
2022-11-09T23:02:29.190Z,100.00
2022-11-09T23:04:57.230Z,100.00
2022-11-09T23:07:25.215Z,100.00
2022-11-09T23:09:52.250Z,100.00
2022-11-09T23:12:23.475Z,100.00
2022-11-09T23:15:05.652Z,100.00
2022-11-09T23:17:54.068Z,100.00
2022-11-09T23:20:23.311Z,100.00
2022-11-09T23:22:57.571Z,100.00
2022-11-09T23:25:51.586Z,100.00
2022-11-09T23:28:18.968Z,100.00
2022-11-09T23:30:47.083Z,100.00
2022-11-09T23:33:14.182Z,100.00
2022-11-09T23:35:44.304Z,100.00
2022-11-09T23:38:40.394Z,100.00
2022-11-09T23:41:11.809Z,100.00
2022-11-09T23:43:46.204Z,100.00
2022-11-09T23:46:17.572Z,100.00
2022-11-09T23:48:44.664Z,100.00
2022-11-09T23:51:18.920Z,100.00
2022-11-09T23:53:47.084Z,100.00
2022-11-09T23:56:16.312Z,100.00
2022-11-09T23:58:45.856Z,100.00
